Luke Afb Information

FAA: LUF - ICAO: KLUF

Luke Afb (Airport) Location

State Arizona
County Maricopa
City Glendale
Luke Afb (Airport) is 7 miles west of Glendale, AZ.
Latitude 33-32-05.8810N
Longitude 112-22-59.5185W
Elevation 1,085ft

Luke Afb METARs

METAR KLUF 032258Z AUTO 24003KT 10SM CLR 26/02 A2995 RMK AO2 SLP136 T02580018 $
Altimeter 29.95"
Temperature 25.8°C (78.4°F)
Wind 240° at 3KT
Clouds Skies are clear.
Visibility 10.0mi
Time observed: 2021-12-03T22:58:00Z

Luke Afb (Airport) Details

Status Operational
Activation September 1943
Ownership Military - Air Force
Usage Private
Chart PHOENIX
ATC on-site Yes
Beacon schedule N/A
Beacon color clear green

Luke Afb (Airport) Contacts

Owner USAF
Owner address LUKE AFB, GLENDALE, AZ 85301
Owner phone 623-856-1110
Manager RICHARD ORTIZ
Manager address 5555 WEST THUNDERBIRD RD, GLENDALE, AZ 85306
Manager phone 602-865-5801

Luke Afb Radio Frequencies

Luke Afb (Airport) Radio Frequencies

UNICOM N/A
Common traffic advisory frequency (CTAF) N/A